createdAt,value
2022-12-11T09:20:45.141Z,54.10
2022-12-11T09:35:58.513Z,55.60
2022-12-11T09:51:11.268Z,53.80
2022-12-11T10:06:22.039Z,52.00
2022-12-11T10:21:27.998Z,51.60
2022-12-11T10:36:35.655Z,51.10
2022-12-11T10:51:40.649Z,50.20
2022-12-11T11:06:45.250Z,49.90
2022-12-11T11:21:53.145Z,48.80
2022-12-11T11:37:05.618Z,48.20
2022-12-11T11:52:16.631Z,48.00
2022-12-11T12:07:31.373Z,48.80
2022-12-11T12:22:55.093Z,49.40
2022-12-11T12:38:06.827Z,47.70
2022-12-11T12:53:18.623Z,47.60
2022-12-11T13:08:27.903Z,48.20
2022-12-11T13:23:34.913Z,48.80
2022-12-11T13:38:40.939Z,48.80
2022-12-11T13:53:45.672Z,49.00
2022-12-11T14:08:54.245Z,48.60
2022-12-11T14:24:00.669Z,48.50
2022-12-11T14:39:09.482Z,48.40
2022-12-11T14:54:28.694Z,48.30
2022-12-11T15:09:40.717Z,48.40
2022-12-11T15:24:47.530Z,48.40
2022-12-11T15:39:52.777Z,47.90
2022-12-11T15:54:57.298Z,47.40
2022-12-11T16:10:01.914Z,47.00
2022-12-11T16:25:07.598Z,46.70
2022-12-11T16:40:13.810Z,46.50
2022-12-11T16:55:22.291Z,46.40
2022-12-11T17:10:26.835Z,46.40
2022-12-11T17:25:31.352Z,46.30
2022-12-11T17:40:35.997Z,46.10
2022-12-11T17:55:42.860Z,46.80
2022-12-11T18:10:47.575Z,46.10
2022-12-11T18:25:52.148Z,46.00
2022-12-11T18:40:56.672Z,46.10
2022-12-11T18:56:01.277Z,46.10
2022-12-11T19:11:07.307Z,46.00
